createdAt,value
2019-04-28T00:01:52.300Z,5.97
2019-04-28T00:04:21.514Z,5.95
2019-04-28T00:06:51.552Z,5.94
2019-04-28T00:09:23.042Z,6.00
2019-04-28T00:11:52.072Z,6.00
2019-04-28T00:14:21.913Z,6.02
2019-04-28T00:16:51.364Z,5.96
2019-04-28T00:19:22.119Z,5.92
2019-04-28T00:22:11.030Z,5.96
2019-04-28T00:24:51.430Z,6.02
2019-04-28T00:27:21.650Z,5.98
2019-04-28T00:29:51.828Z,5.98
2019-04-28T00:32:21.082Z,5.93
2019-04-28T00:34:51.144Z,6.01
2019-04-28T00:37:29.358Z,6.05
2019-04-28T00:39:58.607Z,6.06
2019-04-28T00:42:27.455Z,6.03
2019-04-28T00:44:56.537Z,6.01
2019-04-28T00:47:25.434Z,6.06
2019-04-28T00:49:54.388Z,6.08
2019-04-28T00:52:23.156Z,6.08
2019-04-28T00:54:52.753Z,6.07
2019-04-28T00:57:21.682Z,6.11
2019-04-28T00:59:57.614Z,6.14
2019-04-28T01:02:26.372Z,6.17
2019-04-28T01:04:55.186Z,6.16
2019-04-28T01:07:24.037Z,6.17
2019-04-28T01:09:52.829Z,6.15
2019-04-28T01:12:22.325Z,6.09
2019-04-28T01:14:54.507Z,6.00
2019-04-28T01:17:35.448Z,6.02
2019-04-28T01:20:06.306Z,6.05
2019-04-28T01:22:36.238Z,5.96
2019-04-28T01:25:05.866Z,5.87
2019-04-28T01:27:53.833Z,5.87
2019-04-28T01:30:51.007Z,5.97
2019-04-28T01:33:37.737Z,5.97
2019-04-28T01:36:06.502Z,6.00
2019-04-28T01:38:35.306Z,6.07
2019-04-28T01:41:04.073Z,6.09
2019-04-28T01:43:32.978Z,6.15
2019-04-28T01:46:01.808Z,6.11
2019-04-28T01:48:31.523Z,6.08
2019-04-28T01:51:00.470Z,6.12
2019-04-28T01:53:30.796Z,6.06
2019-04-28T01:55:59.812Z,6.07
2019-04-28T01:58:29.698Z,6.06
2019-04-28T02:00:59.603Z,6.12
2019-04-28T02:03:30.553Z,6.13
2019-04-28T02:06:00.143Z,6.15
2019-04-28T02:08:30.257Z,6.14
2019-04-28T02:11:01.211Z,6.23
2019-04-28T02:13:30.058Z,6.23
2019-04-28T02:16:00.033Z,6.24
2019-04-28T02:18:29.942Z,6.28
2019-04-28T02:21:14.021Z,6.29
2019-04-28T02:23:42.763Z,6.24
2019-04-28T02:26:11.460Z,6.23
2019-04-28T02:28:40.780Z,6.23
2019-04-28T02:31:11.521Z,6.23
2019-04-28T02:33:40.891Z,6.23
2019-04-28T02:36:12.118Z,6.27
2019-04-28T02:38:41.384Z,6.26
2019-04-28T02:41:11.137Z,6.28
2019-04-28T02:43:40.977Z,6.27
2019-04-28T02:46:10.526Z,6.22
2019-04-28T02:48:40.470Z,6.22
2019-04-28T02:51:30.644Z,6.26
2019-04-28T02:54:00.582Z,6.20
2019-04-28T02:56:30.856Z,6.20
2019-04-28T02:59:00.970Z,6.16
2019-04-28T03:01:30.808Z,6.16
2019-04-28T03:04:00.415Z,6.08
2019-04-28T03:06:30.673Z,6.07
2019-04-28T03:09:02.572Z,6.12
2019-04-28T03:11:31.626Z,6.12
2019-04-28T03:14:01.079Z,6.15
2019-04-28T03:16:30.519Z,6.14
2019-04-28T03:19:01.234Z,6.13
2019-04-28T03:21:31.306Z,6.15
2019-04-28T03:24:01.274Z,6.13
2019-04-28T03:26:50.888Z,6.15
2019-04-28T03:29:40.376Z,6.12
2019-04-28T03:32:52.995Z,6.06
2019-04-28T03:35:14.371Z,6.05
2019-04-28T03:37:43.133Z,6.07
2019-04-28T03:40:11.931Z,6.13
2019-04-28T03:42:41.222Z,6.09
2019-04-28T03:45:20.918Z,6.12
2019-04-28T03:47:50.938Z,6.12
2019-04-28T03:50:20.284Z,6.09
2019-04-28T03:52:51.222Z,6.09
2019-04-28T03:55:21.300Z,6.09
2019-04-28T03:57:51.013Z,6.04
2019-04-28T04:00:22.001Z,6.03
2019-04-28T04:02:50.805Z,5.92
2019-04-28T04:05:20.839Z,5.95
2019-04-28T04:07:50.670Z,5.88
2019-04-28T04:10:53.833Z,5.86
2019-04-28T04:13:32.414Z,5.84
2019-04-28T04:16:10.608Z,5.82
2019-04-28T04:18:45.352Z,5.79
2019-04-28T04:21:14.168Z,5.74
2019-04-28T04:23:43.332Z,5.74
2019-04-28T04:26:12.160Z,5.74
2019-04-28T04:28:41.809Z,5.74
2019-04-28T04:31:10.780Z,5.73
2019-04-28T04:33:41.085Z,5.77
2019-04-28T04:36:11.511Z,5.77
2019-04-28T04:38:46.085Z,5.80
2019-04-28T04:41:11.510Z,5.76
2019-04-28T04:43:41.534Z,5.68
2019-04-28T04:46:14.796Z,5.70
2019-04-28T04:48:44.800Z,5.66
2019-04-28T04:51:14.114Z,5.61
2019-04-28T04:53:43.342Z,5.60
2019-04-28T04:56:12.226Z,5.58
2019-04-28T04:58:41.011Z,5.59
2019-04-28T05:01:27.679Z,5.62
2019-04-28T05:03:59.706Z,5.69
2019-04-28T05:06:34.245Z,5.74
2019-04-28T05:09:05.249Z,5.75
2019-04-28T05:11:34.113Z,5.69
2019-04-28T05:14:02.986Z,5.76
2019-04-28T05:16:31.797Z,5.70
2019-04-28T05:19:00.795Z,5.72
2019-04-28T05:21:33.263Z,5.71
2019-04-28T05:24:23.028Z,5.75
2019-04-28T05:26:51.943Z,5.74
2019-04-28T05:29:26.405Z,5.75
2019-04-28T05:31:54.753Z,5.83
2019-04-28T05:34:24.087Z,5.93
2019-04-28T05:36:52.600Z,6.02
2019-04-28T05:39:21.483Z,6.06
2019-04-28T05:41:50.645Z,6.11
2019-04-28T05:44:20.431Z,6.16
2019-04-28T05:46:50.549Z,6.26
2019-04-28T05:49:44.983Z,6.36
2019-04-28T05:52:41.856Z,6.50
2019-04-28T05:55:16.218Z,6.55
2019-04-28T05:57:52.880Z,6.65
2019-04-28T06:00:39.703Z,6.70
2019-04-28T06:03:10.942Z,6.84
2019-04-28T06:05:39.777Z,7.07
2019-04-28T06:08:20.096Z,7.40
2019-04-28T06:10:49.878Z,7.87
2019-04-28T06:13:20.207Z,8.78
2019-04-28T06:15:49.700Z,9.51
2019-04-28T06:18:20.494Z,10.27
2019-04-28T06:20:49.793Z,10.67
2019-04-28T06:23:18.892Z,11.46
2019-04-28T06:25:47.792Z,11.38
2019-04-28T06:28:16.658Z,11.91
2019-04-28T06:30:45.359Z,11.96
2019-04-28T06:33:14.236Z,12.19
2019-04-28T06:35:43.061Z,12.08
2019-04-28T06:38:12.040Z,12.40
2019-04-28T06:40:40.857Z,11.81
2019-04-28T06:43:09.638Z,11.03
2019-04-28T06:45:38.834Z,10.93
2019-04-28T06:48:07.969Z,10.26
2019-04-28T06:50:36.943Z,9.91
2019-04-28T06:53:07.841Z,9.52
2019-04-28T06:55:36.646Z,9.13
2019-04-28T06:58:05.889Z,8.95
2019-04-28T07:00:34.789Z,9.00
2019-04-28T07:03:03.718Z,8.93
2019-04-28T07:05:32.730Z,8.84
2019-04-28T07:08:01.793Z,8.82
2019-04-28T07:10:30.959Z,9.05
2019-04-28T07:13:02.650Z,9.14
2019-04-28T07:15:31.613Z,9.46
2019-04-28T07:18:00.590Z,9.34
2019-04-28T07:20:42.212Z,9.25
2019-04-28T07:23:11.091Z,8.97
2019-04-28T07:25:40.161Z,8.75
2019-04-28T07:28:11.065Z,8.66
2019-04-28T07:30:41.155Z,8.43
2019-04-28T07:33:09.977Z,8.20
2019-04-28T07:35:38.893Z,8.17
2019-04-28T07:38:07.745Z,8.14
2019-04-28T07:40:36.591Z,8.04
2019-04-28T07:43:06.411Z,8.01
2019-04-28T07:45:35.293Z,7.99
2019-04-28T07:48:04.111Z,8.01
2019-04-28T07:50:33.915Z,7.92
2019-04-28T07:53:12.262Z,7.95
2019-04-28T07:55:41.235Z,7.92
2019-04-28T07:58:10.281Z,7.87
2019-04-28T08:00:39.182Z,7.88
2019-04-28T08:03:08.099Z,7.88
2019-04-28T08:05:36.934Z,7.86
2019-04-28T08:08:05.748Z,7.88
2019-04-28T08:10:34.526Z,7.89
2019-04-28T08:13:04.422Z,7.93
2019-04-28T08:15:33.271Z,8.05
2019-04-28T08:18:02.056Z,8.10
2019-04-28T08:20:30.913Z,8.13
2019-04-28T08:23:01.961Z,8.16
2019-04-28T08:25:30.811Z,8.18
2019-04-28T08:27:59.995Z,8.25
2019-04-28T08:30:28.896Z,8.28
2019-04-28T08:33:25.809Z,8.37
2019-04-28T08:35:55.033Z,8.43
2019-04-28T08:38:27.215Z,8.53
2019-04-28T08:40:56.026Z,8.71
2019-04-28T08:43:24.903Z,8.78
2019-04-28T08:45:54.152Z,9.00
2019-04-28T08:48:23.148Z,9.07
2019-04-28T08:50:52.446Z,9.14
2019-04-28T08:53:21.590Z,9.21
2019-04-28T08:55:50.666Z,9.32
2019-04-28T08:58:19.496Z,9.38
2019-04-28T09:00:48.372Z,9.70
2019-04-28T09:03:17.232Z,10.39
2019-04-28T09:05:46.231Z,11.10
2019-04-28T09:08:15.058Z,11.48
2019-04-28T09:10:44.088Z,11.84
2019-04-28T09:13:12.966Z,12.04
2019-04-28T09:15:41.821Z,12.26
2019-04-28T09:18:11.081Z,12.28
2019-04-28T09:20:39.891Z,12.09
2019-04-28T09:23:08.738Z,11.84
2019-04-28T09:25:38.620Z,11.45
2019-04-28T09:28:07.501Z,11.20
2019-04-28T09:30:36.288Z,10.97
2019-04-28T09:33:05.158Z,10.80
2019-04-28T09:35:34.157Z,10.55
2019-04-28T09:38:02.957Z,10.63
2019-04-28T09:40:31.803Z,11.01
2019-04-28T09:43:06.875Z,11.33
2019-04-28T09:45:39.258Z,11.63
2019-04-28T09:48:08.150Z,12.06
2019-04-28T09:50:37.171Z,12.32
2019-04-28T09:53:06.118Z,12.18
2019-04-28T09:55:35.414Z,11.82
2019-04-28T09:58:04.321Z,11.79
2019-04-28T10:00:33.776Z,11.50
2019-04-28T10:03:02.632Z,11.37
2019-04-28T10:05:31.518Z,11.27
2019-04-28T10:08:04.876Z,11.12
2019-04-28T10:10:33.736Z,11.02
2019-04-28T10:13:02.562Z,10.94
2019-04-28T10:15:31.668Z,10.93
2019-04-28T10:18:00.469Z,10.97
2019-04-28T10:20:29.583Z,10.47
2019-04-28T10:22:58.422Z,10.23
2019-04-28T10:25:27.229Z,10.30
2019-04-28T10:27:56.001Z,10.45
2019-04-28T10:30:24.924Z,10.58
2019-04-28T10:32:54.129Z,10.77
2019-04-28T10:35:23.314Z,10.32
2019-04-28T10:37:52.202Z,10.35
2019-04-28T10:40:55.901Z,10.38
2019-04-28T10:43:24.690Z,10.60
2019-04-28T10:45:55.560Z,10.63
2019-04-28T10:48:24.461Z,10.71
2019-04-28T10:50:53.389Z,10.74
2019-04-28T10:53:22.191Z,10.63
2019-04-28T10:55:50.896Z,10.70
2019-04-28T10:58:19.701Z,10.83
2019-04-28T11:00:48.504Z,10.82
2019-04-28T11:03:17.436Z,10.71
2019-04-28T11:05:46.321Z,10.87
2019-04-28T11:08:50.645Z,11.12
2019-04-28T11:11:27.217Z,11.54
2019-04-28T11:13:56.231Z,11.68
2019-04-28T11:16:30.557Z,11.78
2019-04-28T11:18:59.644Z,11.68
2019-04-28T11:21:28.587Z,11.61
2019-04-28T11:23:59.556Z,11.49
2019-04-28T11:26:28.578Z,11.53
2019-04-28T11:28:57.493Z,11.52
2019-04-28T11:31:26.503Z,11.57
2019-04-28T11:34:05.493Z,11.62
2019-04-28T11:36:34.773Z,11.73
2019-04-28T11:39:06.713Z,11.69
2019-04-28T11:41:35.647Z,11.67
2019-04-28T11:44:04.615Z,11.57
2019-04-28T11:46:37.959Z,11.63
2019-04-28T11:49:06.895Z,11.73
2019-04-28T11:51:36.776Z,11.98
2019-04-28T11:54:06.287Z,12.43
2019-04-28T11:56:41.750Z,12.85
2019-04-28T11:59:05.816Z,12.99
2019-04-28T12:01:34.959Z,12.68
2019-04-28T12:04:05.554Z,12.45
2019-04-28T12:06:34.488Z,12.34
2019-04-28T12:09:19.299Z,12.19
2019-04-28T12:11:50.448Z,11.95
2019-04-28T12:14:34.974Z,11.72
2019-04-28T12:17:16.689Z,11.45
2019-04-28T12:19:49.177Z,11.34
2019-04-28T12:22:17.970Z,11.17
2019-04-28T12:24:46.832Z,11.03
2019-04-28T12:27:15.964Z,10.99
2019-04-28T12:29:44.837Z,10.90
2019-04-28T12:32:14.778Z,10.89
2019-04-28T12:34:43.515Z,10.89
2019-04-28T12:37:12.321Z,10.79
2019-04-28T12:39:41.145Z,10.78
2019-04-28T12:42:10.029Z,10.73
2019-04-28T12:44:39.033Z,10.71
2019-04-28T12:47:08.856Z,10.66
2019-04-28T12:49:47.559Z,10.63
2019-04-28T12:52:16.520Z,10.64
2019-04-28T12:54:45.434Z,10.64
2019-04-28T12:57:15.778Z,10.65
2019-04-28T12:59:49.631Z,10.72
2019-04-28T13:02:37.717Z,10.72
2019-04-28T13:05:11.337Z,10.77
2019-04-28T13:07:40.474Z,10.74
2019-04-28T13:10:10.403Z,10.85
2019-04-28T13:12:39.214Z,10.89
2019-04-28T13:15:08.008Z,10.95
2019-04-28T13:17:36.837Z,10.86
2019-04-28T13:20:05.747Z,11.19
2019-04-28T13:22:34.722Z,11.41
2019-04-28T13:25:03.525Z,11.87
2019-04-28T13:27:32.348Z,12.22
2019-04-28T13:30:01.203Z,12.55
2019-04-28T13:32:29.940Z,12.73
2019-04-28T13:34:58.841Z,12.90
2019-04-28T13:37:27.697Z,12.94
2019-04-28T13:40:00.343Z,12.72
2019-04-28T13:42:30.238Z,12.64
2019-04-28T13:45:03.292Z,12.55
2019-04-28T13:47:32.410Z,12.77
2019-04-28T13:50:13.572Z,13.03
2019-04-28T13:52:42.498Z,12.79
2019-04-28T13:55:33.219Z,12.44
2019-04-28T13:58:03.012Z,12.06
2019-04-28T14:00:58.219Z,11.93
2019-04-28T14:03:45.980Z,11.72
2019-04-28T14:06:27.550Z,11.61
2019-04-28T14:08:46.895Z,11.73
2019-04-28T14:11:15.806Z,11.78
2019-04-28T14:13:44.623Z,11.63
2019-04-28T14:16:13.446Z,11.72
2019-04-28T14:18:42.231Z,11.97
2019-04-28T14:21:11.127Z,12.06
2019-04-28T14:23:40.080Z,12.30
2019-04-28T14:26:08.975Z,12.52
2019-04-28T14:28:38.868Z,12.70
2019-04-28T14:31:07.685Z,12.65
2019-04-28T14:33:36.575Z,12.61
2019-04-28T14:36:05.489Z,12.45
2019-04-28T14:38:34.301Z,12.32
2019-04-28T14:41:03.227Z,12.28
2019-04-28T14:43:33.213Z,12.26
2019-04-28T14:46:02.127Z,12.13
2019-04-28T14:48:30.943Z,11.89
2019-04-28T14:51:00.064Z,11.84
2019-04-28T14:53:29.091Z,11.79
2019-04-28T14:55:58.038Z,11.74
2019-04-28T14:58:26.927Z,11.75
2019-04-28T15:01:00.761Z,11.69
2019-04-28T15:03:30.938Z,11.70
2019-04-28T15:06:12.104Z,11.72
2019-04-28T15:09:08.919Z,11.72
2019-04-28T15:11:47.325Z,11.75
2019-04-28T15:14:16.563Z,11.74
2019-04-28T15:16:45.417Z,11.71
2019-04-28T15:19:14.513Z,11.65
2019-04-28T15:21:43.474Z,11.54
2019-04-28T15:24:12.426Z,11.57
2019-04-28T15:26:42.394Z,11.62
2019-04-28T15:29:11.336Z,11.55
2019-04-28T15:31:40.494Z,11.60
2019-04-28T15:34:09.411Z,11.62
2019-04-28T15:36:39.351Z,11.64
2019-04-28T15:39:10.890Z,11.53
2019-04-28T15:41:39.822Z,11.42
2019-04-28T15:44:08.759Z,11.41
2019-04-28T15:46:37.578Z,11.30
2019-04-28T15:49:06.881Z,11.18
2019-04-28T15:51:35.789Z,10.91
2019-04-28T15:54:04.775Z,10.66
2019-04-28T15:56:42.460Z,10.44
2019-04-28T15:59:11.594Z,10.33
2019-04-28T16:01:41.596Z,10.21
2019-04-28T16:04:10.651Z,10.19
2019-04-28T16:06:39.591Z,10.15
2019-04-28T16:09:12.907Z,10.13
2019-04-28T16:11:43.349Z,10.14
2019-04-28T16:14:12.635Z,10.15
2019-04-28T16:16:42.553Z,10.15
2019-04-28T16:19:11.297Z,10.12
2019-04-28T16:21:40.248Z,10.14
2019-04-28T16:24:09.471Z,10.14
2019-04-28T16:26:40.445Z,10.18
2019-04-28T16:29:09.249Z,10.19
2019-04-28T16:31:38.075Z,10.16
2019-04-28T16:34:06.938Z,10.18
2019-04-28T16:36:35.738Z,10.17
2019-04-28T16:39:06.629Z,10.11
2019-04-28T16:41:35.697Z,10.08
2019-04-28T16:44:04.708Z,10.06
2019-04-28T16:46:33.686Z,10.00
2019-04-28T16:49:02.450Z,10.02
2019-04-28T16:51:31.323Z,9.98
2019-04-28T16:54:00.231Z,9.95
2019-04-28T16:56:44.683Z,9.88
2019-04-28T16:59:34.732Z,9.86
2019-04-28T17:02:38.038Z,9.86
2019-04-28T17:05:09.147Z,9.88
2019-04-28T17:07:46.056Z,9.88
2019-04-28T17:10:11.751Z,9.83
2019-04-28T17:12:40.552Z,9.78
2019-04-28T17:15:10.436Z,9.75
2019-04-28T17:17:39.436Z,9.76
2019-04-28T17:20:08.159Z,9.76
2019-04-28T17:22:36.876Z,9.72
2019-04-28T17:25:06.104Z,9.65
2019-04-28T17:27:35.035Z,9.63
2019-04-28T17:30:03.977Z,9.61
2019-04-28T17:32:33.070Z,9.58
2019-04-28T17:35:02.234Z,9.42
2019-04-28T17:37:32.066Z,9.34
2019-04-28T17:40:01.251Z,9.32
2019-04-28T17:42:30.086Z,9.24
2019-04-28T17:44:59.457Z,9.19
2019-04-28T17:47:28.267Z,9.16
2019-04-28T17:49:57.172Z,9.10
2019-04-28T17:52:25.942Z,9.04
2019-04-28T17:54:54.745Z,9.04
2019-04-28T17:57:23.698Z,9.02
2019-04-28T17:59:54.530Z,8.98
2019-04-28T18:02:42.691Z,8.99
2019-04-28T18:05:39.846Z,9.00
2019-04-28T18:08:20.918Z,9.00
2019-04-28T18:10:43.466Z,8.92
2019-04-28T18:13:13.403Z,8.87
2019-04-28T18:16:13.369Z,8.82
2019-04-28T18:18:45.179Z,8.76
2019-04-28T18:21:14.121Z,8.67
2019-04-28T18:23:43.048Z,8.62
2019-04-28T18:26:12.979Z,8.58
2019-04-28T18:28:42.648Z,8.54
2019-04-28T18:31:42.666Z,8.47
2019-04-28T18:45:20.602Z,8.14
2019-04-28T18:50:26.432Z,8.00
2019-04-28T18:52:56.901Z,7.93
2019-04-28T18:55:28.189Z,7.84
2019-04-28T18:57:57.796Z,7.75
2019-04-28T19:00:28.457Z,7.65
2019-04-28T19:03:00.021Z,7.59
2019-04-28T19:05:36.282Z,7.53
2019-04-28T19:08:18.739Z,7.48
2019-04-28T19:11:12.390Z,7.37
2019-04-28T19:13:46.322Z,7.28
2019-04-28T19:16:52.749Z,7.22
2019-04-28T19:19:23.589Z,7.17
2019-04-28T19:21:56.393Z,7.07
2019-04-28T19:24:26.129Z,6.98
2019-04-28T19:26:55.099Z,6.89
2019-04-28T19:29:23.975Z,6.81
2019-04-28T19:31:53.660Z,6.76
2019-04-28T19:34:22.880Z,6.73
2019-04-28T19:36:51.923Z,6.67
2019-04-28T19:39:20.885Z,6.64
2019-04-28T19:41:51.105Z,6.61
2019-04-28T19:44:20.190Z,6.58
2019-04-28T19:46:49.106Z,6.55
2019-04-28T19:49:20.978Z,6.48
2019-04-28T19:51:51.902Z,6.45
2019-04-28T19:54:24.773Z,6.41
2019-04-28T19:57:31.574Z,6.34
2019-04-28T20:00:35.306Z,6.28
2019-04-28T20:03:06.827Z,6.20
2019-04-28T20:05:35.831Z,6.15
2019-04-28T20:08:06.721Z,6.09
2019-04-28T20:10:35.629Z,6.04
2019-04-28T20:13:05.505Z,5.98
2019-04-28T20:15:34.532Z,5.94
2019-04-28T20:18:03.685Z,5.91
2019-04-28T20:20:32.732Z,5.89
2019-04-28T20:23:01.743Z,5.85
2019-04-28T20:25:31.202Z,5.84
2019-04-28T20:27:59.985Z,5.81
2019-04-28T20:30:29.012Z,5.80
2019-04-28T20:33:06.942Z,5.79
2019-04-28T20:35:32.168Z,5.77
2019-04-28T20:38:23.911Z,5.72
2019-04-28T20:41:08.360Z,5.69
2019-04-28T20:43:37.439Z,5.63
2019-04-28T20:46:08.264Z,5.61
2019-04-28T20:48:39.474Z,5.61
2019-04-28T20:51:08.416Z,5.62
2019-04-28T20:53:37.422Z,5.62
2019-04-28T20:56:06.266Z,5.63
2019-04-28T20:58:35.176Z,5.65
2019-04-28T21:01:04.370Z,5.69
2019-04-28T21:03:35.238Z,5.69
2019-04-28T21:06:04.041Z,5.66
2019-04-28T21:08:34.027Z,5.66
2019-04-28T21:11:02.766Z,5.67
2019-04-28T21:13:31.574Z,5.65
2019-04-28T21:16:00.486Z,5.63
2019-04-28T21:18:29.300Z,5.63
2019-04-28T21:21:02.507Z,5.60
2019-04-28T21:23:31.444Z,5.58
2019-04-28T21:26:00.849Z,5.56
2019-04-28T21:28:29.717Z,5.49
2019-04-28T21:30:59.654Z,5.47
2019-04-28T21:33:29.563Z,5.41
2019-04-28T21:35:59.525Z,5.36
2019-04-28T21:38:28.698Z,5.30
2019-04-28T21:41:01.316Z,5.26
2019-04-28T21:43:45.991Z,5.21
2019-04-28T21:46:38.809Z,5.17
2019-04-28T21:49:25.299Z,5.14
2019-04-28T21:51:54.745Z,5.09
2019-04-28T21:54:23.503Z,5.04
2019-04-28T21:56:52.319Z,4.99
2019-04-28T21:59:21.103Z,4.99
2019-04-28T22:01:49.999Z,4.99
2019-04-28T22:04:18.781Z,5.01
2019-04-28T22:06:47.644Z,5.04
2019-04-28T22:09:16.853Z,5.06
2019-04-28T22:11:45.779Z,5.06
2019-04-28T22:14:14.690Z,5.09
2019-04-28T22:16:43.571Z,5.09
2019-04-28T22:19:12.363Z,5.10
2019-04-28T22:21:41.262Z,5.07
2019-04-28T22:24:16.938Z,5.03
2019-04-28T22:26:47.316Z,4.99
2019-04-28T22:29:16.196Z,4.97
2019-04-28T22:31:45.479Z,4.95
2019-04-28T22:34:14.915Z,4.98
2019-04-28T22:36:45.369Z,4.97
2019-04-28T22:39:15.617Z,4.95
2019-04-28T22:41:44.516Z,4.95
2019-04-28T22:44:13.481Z,4.95
2019-04-28T22:46:42.662Z,4.96
2019-04-28T22:49:11.547Z,4.95
2019-04-28T22:51:40.434Z,4.94
2019-04-28T22:54:28.241Z,4.95
2019-04-28T22:57:05.763Z,4.94
2019-04-28T22:59:38.793Z,4.88
2019-04-28T23:02:18.707Z,4.87
2019-04-28T23:04:55.699Z,4.84
2019-04-28T23:07:24.764Z,4.82
2019-04-28T23:09:53.699Z,4.79
2019-04-28T23:12:22.607Z,4.78
2019-04-28T23:14:52.298Z,4.72
2019-04-28T23:17:21.639Z,4.69
2019-04-28T23:19:50.553Z,4.64
2019-04-28T23:22:25.702Z,4.63
2019-04-28T23:24:57.357Z,4.60
2019-04-28T23:27:26.163Z,4.59
2019-04-28T23:29:55.056Z,4.59
2019-04-28T23:32:23.844Z,4.61
2019-04-28T23:34:52.648Z,4.63
2019-04-28T23:37:21.452Z,4.67
2019-04-28T23:39:50.305Z,4.70
2019-04-28T23:42:27.742Z,4.74
2019-04-28T23:44:56.602Z,4.72
2019-04-28T23:47:25.563Z,4.76
2019-04-28T23:49:54.954Z,4.76
2019-04-28T23:52:33.137Z,4.75
2019-04-28T23:55:03.598Z,4.71
2019-04-28T23:57:32.465Z,4.70
